Time;durP1;ratioP1;P1;durP2;ratioP2;P2;SDS_P1;SDS_P2;PMS_P1;PMS_P2;Temp;Humidity;BMP_temperature;BMP_pressure;BME280_temperature;BME280_humidity;BME280_pressure;Samples;Min_cycle;Max_cycle;Signal;HPM_P1;HPM_P2
2022/03/21 00:00:53;;;;;;;27.13;12.55;;;;;;;;;;5048264;28;20017;-75
2022/03/21 00:03:20;;;;;;;27.50;12.20;;;;;;;;;;5045724;28;20056;-75
2022/03/21 00:05:46;;;;;;;25.50;13.00;;;;;;;;;;5044728;28;20025;-73
2022/03/21 00:08:13;;;;;;;36.08;13.93;;;;;;;;;;5035655;28;20467;-74
2022/03/21 00:10:40;;;;;;;24.73;13.50;;;;;;;;;;5032830;28;20371;-74
2022/03/21 00:13:06;;;;;;;29.77;13.63;;;;;;;;;;5033170;28;20029;-75
2022/03/21 00:15:32;;;;;;;27.02;13.02;;;;;;;;;;5037115;28;20539;-73
2022/03/21 00:17:58;;;;;;;22.75;12.45;;;;;;;;;;5034577;28;20108;-74
2022/03/21 00:20:26;;;;;;;29.30;13.40;;;;;;;;;;5031602;28;20464;-73
2022/03/21 00:22:53;;;;;;;24.35;13.80;;;;;;;;;;5031815;28;20026;-74
2022/03/21 00:25:19;;;;;;;29.88;13.25;;;;;;;;;;5031153;28;20100;-74
2022/03/21 00:27:45;;;;;;;27.70;13.82;;;;;;;;;;5031245;28;20429;-75
2022/03/21 00:30:11;;;;;;;33.42;14.18;;;;;;;;;;5031151;28;20032;-74
2022/03/21 00:32:38;;;;;;;31.17;13.48;;;;;;;;;;5031049;28;20025;-74
2022/03/21 00:35:08;;;;;;;27.77;13.85;;;;;;;;;;5031616;28;20506;-73
2022/03/21 00:37:35;;;;;;;25.70;13.27;;;;;;;;;;5030877;28;20030;-73
2022/03/21 00:40:01;;;;;;;28.58;13.43;;;;;;;;;;5031236;28;20244;-73
2022/03/21 00:42:27;;;;;;;27.00;14.10;;;;;;;;;;5034254;28;20035;-75
2022/03/21 00:44:56;;;;;;;28.90;13.55;;;;;;;;;;5031500;28;20034;-74
2022/03/21 00:47:22;;;;;;;29.92;14.55;;;;;;;;;;5031119;28;20378;-74
2022/03/21 00:49:48;;;;;;;25.33;13.75;;;;;;;;;;5030632;28;20032;-75
2022/03/21 00:52:14;;;;;;;27.20;13.15;;;;;;;;;;5042252;28;20025;-73
2022/03/21 00:54:40;;;;;;;27.65;13.70;;;;;;;;;;5035236;28;20137;-74
2022/03/21 00:57:06;;;;;;;28.45;14.07;;;;;;;;;;5034486;28;20037;-73
2022/03/21 00:59:32;;;;;;;30.15;13.75;;;;;;;;;;5034984;28;20390;-74
2022/03/21 01:01:58;;;;;;;27.75;13.63;;;;;;;;;;5034407;28;20048;-74
2022/03/21 01:04:24;;;;;;;25.73;13.73;;;;;;;;;;5016551;28;20021;-73
2022/03/21 01:06:52;;;;;;;25.10;13.18;;;;;;;;;;5033996;28;20030;-74
2022/03/21 01:09:18;;;;;;;29.88;14.43;;;;;;;;;;5034506;28;20040;-74
2022/03/21 01:11:44;;;;;;;25.58;13.10;;;;;;;;;;5034836;28;20087;-74
2022/03/21 01:14:11;;;;;;;28.92;13.88;;;;;;;;;;5017361;28;20033;-76
2022/03/21 01:16:37;;;;;;;30.15;13.55;;;;;;;;;;5035036;28;20368;-74
2022/03/21 01:19:03;;;;;;;26.95;14.15;;;;;;;;;;5035419;28;20025;-74
2022/03/21 01:21:30;;;;;;;29.17;13.77;;;;;;;;;;5035456;28;20033;-74
2022/03/21 01:23:56;;;;;;;25.80;13.45;;;;;;;;;;5017814;28;20116;-74
2022/03/21 01:26:22;;;;;;;27.15;14.32;;;;;;;;;;5017464;28;20021;-74
2022/03/21 01:28:48;;;;;;;28.27;13.57;;;;;;;;;;5035655;28;20474;-75
2022/03/21 01:31:14;;;;;;;27.00;13.93;;;;;;;;;;5021958;28;20029;-74
2022/03/21 01:33:41;;;;;;;26.08;13.70;;;;;;;;;;5040002;28;20117;-74
2022/03/21 01:36:07;;;;;;;30.33;13.60;;;;;;;;;;5058541;28;20069;-72
2022/03/21 01:38:33;;;;;;;27.20;13.60;;;;;;;;;;5059662;28;20017;-72
2022/03/21 01:40:59;;;;;;;26.63;13.57;;;;;;;;;;5059713;28;20021;-72
2022/03/21 01:43:25;;;;;;;25.23;13.88;;;;;;;;;;5059958;28;20124;-72
2022/03/21 01:45:51;;;;;;;24.08;13.80;;;;;;;;;;5059849;28;20022;-73
2022/03/21 01:48:17;;;;;;;29.60;14.73;;;;;;;;;;5059460;28;20029;-72
2022/03/21 01:50:43;;;;;;;24.67;13.02;;;;;;;;;;5060124;28;20017;-72
2022/03/21 01:55:57;;;;;;;27.25;14.55;;;;;;;;;;5050767;28;20418;-74
2022/03/21 01:58:27;;;;;;;26.27;13.95;;;;;;;;;;5034489;28;20030;-73
2022/03/21 02:00:53;;;;;;;27.42;13.65;;;;;;;;;;5035002;28;20471;-74
2022/03/21 02:03:19;;;;;;;30.13;13.93;;;;;;;;;;5035121;28;20025;-74
2022/03/21 02:05:47;;;;;;;26.48;13.40;;;;;;;;;;5025606;28;20040;-75
2022/03/21 02:08:13;;;;;;;28.10;13.98;;;;;;;;;;5026169;28;20029;-74
2022/03/21 02:10:39;;;;;;;37.00;13.95;;;;;;;;;;5021307;28;20037;-74
2022/03/21 02:13:06;;;;;;;28.38;13.90;;;;;;;;;;5056719;22;21552;-76
2022/03/21 02:15:32;;;;;;;27.30;14.25;;;;;;;;;;5034033;28;20056;-75
2022/03/21 02:18:02;;;;;;;34.17;14.70;;;;;;;;;;5037285;28;20052;-76
2022/03/21 02:20:33;;;;;;;28.63;14.00;;;;;;;;;;5036739;28;20053;-76
2022/03/21 02:23:07;;;;;;;28.27;14.80;;;;;;;;;;5035810;28;20022;-76
2022/03/21 02:25:35;;;;;;;30.10;14.93;;;;;;;;;;5035799;28;20022;-75
2022/03/21 02:28:03;;;;;;;27.52;14.23;;;;;;;;;;5018959;28;20018;-75
2022/03/21 02:30:30;;;;;;;30.90;14.90;;;;;;;;;;5018155;28;20072;-76
2022/03/21 02:32:56;;;;;;;31.52;15.45;;;;;;;;;;5035795;28;20017;-77
2022/03/21 02:35:23;;;;;;;27.13;13.90;;;;;;;;;;5036247;28;20067;-76
2022/03/21 02:37:49;;;;;;;27.20;14.30;;;;;;;;;;5036466;28;20030;-77
2022/03/21 02:40:15;;;;;;;25.90;14.20;;;;;;;;;;5036011;28;20022;-77
2022/03/21 02:42:41;;;;;;;28.15;13.77;;;;;;;;;;5036725;28;20021;-76
2022/03/21 02:45:07;;;;;;;28.10;14.23;;;;;;;;;;5036831;28;20105;-76
2022/03/21 02:47:34;;;;;;;29.40;15.07;;;;;;;;;;5038008;28;20061;-77
2022/03/21 02:50:01;;;;;;;28.75;14.27;;;;;;;;;;5041283;28;20025;-79
2022/03/21 02:52:28;;;;;;;31.45;15.55;;;;;;;;;;5048079;28;20039;-76
2022/03/21 02:54:54;;;;;;;28.05;15.52;;;;;;;;;;5047983;28;20348;-76
2022/03/21 02:57:21;;;;;;;31.35;14.82;;;;;;;;;;5045021;28;20056;-77
2022/03/21 02:59:47;;;;;;;38.42;17.30;;;;;;;;;;5046605;28;20021;-77
2022/03/21 03:02:12;;;;;;;33.45;15.85;;;;;;;;;;5048449;28;20018;-77
2022/03/21 03:04:38;;;;;;;27.13;14.70;;;;;;;;;;5053305;28;20040;-76
2022/03/21 03:07:04;;;;;;;33.20;15.27;;;;;;;;;;5050083;28;20105;-77
2022/03/21 03:09:30;;;;;;;26.73;15.20;;;;;;;;;;5041475;28;20018;-77
2022/03/21 03:11:56;;;;;;;31.52;15.82;;;;;;;;;;5039180;28;20036;-76
2022/03/21 03:14:22;;;;;;;29.80;14.73;;;;;;;;;;5035513;28;20033;-77
2022/03/21 03:16:48;;;;;;;27.15;14.93;;;;;;;;;;5041328;28;20031;-75
2022/03/21 03:19:14;;;;;;;28.30;15.23;;;;;;;;;;5041119;28;20049;-75
2022/03/21 03:21:42;;;;;;;30.15;15.05;;;;;;;;;;5036825;28;20036;-77
2022/03/21 03:24:09;;;;;;;38.70;15.57;;;;;;;;;;5034878;28;20076;-76
2022/03/21 03:26:35;;;;;;;33.38;15.82;;;;;;;;;;5035498;28;20037;-76
2022/03/21 03:29:01;;;;;;;30.45;15.07;;;;;;;;;;5034795;28;20021;-75
2022/03/21 03:31:28;;;;;;;35.20;15.15;;;;;;;;;;5035204;28;20294;-76
2022/03/21 03:33:54;;;;;;;27.70;15.45;;;;;;;;;;5037137;28;20061;-75
2022/03/21 03:36:20;;;;;;;29.63;15.25;;;;;;;;;;5039857;28;20437;-76
2022/03/21 03:38:47;;;;;;;30.48;15.13;;;;;;;;;;5036040;28;20048;-76
2022/03/21 03:41:13;;;;;;;30.65;14.85;;;;;;;;;;5038554;28;20030;-77
2022/03/21 03:43:39;;;;;;;28.05;14.95;;;;;;;;;;5035404;28;20018;-75
2022/03/21 03:46:05;;;;;;;30.67;15.32;;;;;;;;;;5035847;28;20036;-76
2022/03/21 03:48:31;;;;;;;29.77;14.85;;;;;;;;;;5036153;28;20022;-76
2022/03/21 03:50:58;;;;;;;31.67;15.15;;;;;;;;;;5018620;28;20124;-76
2022/03/21 03:53:24;;;;;;;30.95;15.80;;;;;;;;;;5041918;28;20037;-76
2022/03/21 03:55:50;;;;;;;31.48;15.05;;;;;;;;;;5037896;28;20492;-76
2022/03/21 03:58:16;;;;;;;29.70;16.23;;;;;;;;;;5037340;28;20032;-74
2022/03/21 04:00:44;;;;;;;31.08;15.45;;;;;;;;;;5036496;28;20032;-76
2022/03/21 04:05:55;;;;;;;30.13;15.68;;;;;;;;;;5039645;28;20060;-76
2022/03/21 04:08:21;;;;;;;34.70;16.73;;;;;;;;;;5037653;28;20025;-75
2022/03/21 04:10:47;;;;;;;31.13;15.35;;;;;;;;;;5035593;28;20025;-75
2022/03/21 04:13:13;;;;;;;32.75;15.48;;;;;;;;;;5033979;28;20103;-75
2022/03/21 04:15:39;;;;;;;33.65;15.52;;;;;;;;;;5016841;28;20030;-77
2022/03/21 04:18:05;;;;;;;33.55;14.88;;;;;;;;;;5034161;28;20032;-76
2022/03/21 04:20:31;;;;;;;32.28;15.82;;;;;;;;;;5033337;28;20025;-76
2022/03/21 04:22:58;;;;;;;33.28;15.15;;;;;;;;;;5033166;28;20049;-75
2022/03/21 04:25:24;;;;;;;30.23;15.38;;;;;;;;;;5031442;28;20021;-76
2022/03/21 04:27:50;;;;;;;35.25;15.60;;;;;;;;;;5033950;28;20098;-76
2022/03/21 04:30:17;;;;;;;31.48;15.82;;;;;;;;;;5038221;28;20438;-76
2022/03/21 04:32:46;;;;;;;32.92;15.43;;;;;;;;;;5036677;28;20021;-76
2022/03/21 04:35:12;;;;;;;32.65;16.10;;;;;;;;;;5037046;28;20474;-76
2022/03/21 04:37:39;;;;;;;33.22;16.67;;;;;;;;;;5037877;28;20092;-76
2022/03/21 04:40:06;;;;;;;35.95;17.00;;;;;;;;;;5038004;28;20105;-77
2022/03/21 04:42:32;;;;;;;28.67;15.95;;;;;;;;;;5035958;28;20057;-75
2022/03/21 04:44:58;;;;;;;31.42;15.63;;;;;;;;;;5037369;28;20417;-77
2022/03/21 04:47:24;;;;;;;39.05;16.50;;;;;;;;;;5037715;28;20021;-77
2022/03/21 04:49:50;;;;;;;32.20;15.95;;;;;;;;;;5037036;28;20105;-76
2022/03/21 04:52:16;;;;;;;31.50;16.42;;;;;;;;;;5038147;28;20441;-74
2022/03/21 04:54:42;;;;;;;35.10;15.95;;;;;;;;;;5040265;28;20025;-75
2022/03/21 04:57:10;;;;;;;35.40;17.65;;;;;;;;;;5040714;28;20360;-75
2022/03/21 04:59:37;;;;;;;32.35;17.25;;;;;;;;;;5039965;28;20041;-76
2022/03/21 05:02:03;;;;;;;36.10;16.63;;;;;;;;;;5041124;28;20513;-76
2022/03/21 05:04:30;;;;;;;32.85;15.93;;;;;;;;;;5040868;28;20536;-77
2022/03/21 05:06:57;;;;;;;33.72;15.23;;;;;;;;;;5037937;28;20450;-75
2022/03/21 05:09:23;;;;;;;33.10;16.48;;;;;;;;;;5036925;28;20021;-76
2022/03/21 05:11:49;;;;;;;30.65;15.50;;;;;;;;;;5043103;28;20036;-75
2022/03/21 05:14:18;;;;;;;29.45;15.75;;;;;;;;;;5040996;28;20029;-77
2022/03/21 05:16:44;;;;;;;31.77;16.00;;;;;;;;;;5049499;28;20025;-77
2022/03/21 05:19:10;;;;;;;35.72;16.63;;;;;;;;;;5044265;28;20085;-77
2022/03/21 05:21:36;;;;;;;32.85;17.10;;;;;;;;;;5044453;28;20045;-80
2022/03/21 05:32:15;;;;;;;36.13;17.67;;;;;;;;;;5042017;28;20516;-76
2022/03/21 05:37:26;;;;;;;31.92;15.95;;;;;;;;;;5038282;28;20083;-76
2022/03/21 05:42:36;;;;;;;35.25;16.65;;;;;;;;;;5034999;28;20116;-77
2022/03/21 05:45:02;;;;;;;31.52;15.82;;;;;;;;;;5036469;28;20057;-76
2022/03/21 05:47:28;;;;;;;32.80;16.42;;;;;;;;;;5033730;28;20421;-75
2022/03/21 05:49:54;;;;;;;35.28;16.75;;;;;;;;;;5036212;28;20033;-76
2022/03/21 05:52:20;;;;;;;32.38;16.50;;;;;;;;;;5035794;28;20029;-76
2022/03/21 05:54:46;;;;;;;36.80;16.38;;;;;;;;;;5038344;28;20025;-77
2022/03/21 05:57:12;;;;;;;35.03;16.63;;;;;;;;;;5038702;28;20037;-76
2022/03/21 06:02:23;;;;;;;33.53;15.77;;;;;;;;;;5040314;28;20083;-76
2022/03/21 06:04:49;;;;;;;29.95;16.08;;;;;;;;;;5036076;28;20029;-77
2022/03/21 06:07:17;;;;;;;32.50;16.52;;;;;;;;;;5037102;28;20025;-77
2022/03/21 06:09:43;;;;;;;38.13;17.63;;;;;;;;;;5038744;28;20211;-78
2022/03/21 06:12:09;;;;;;;29.48;17.08;;;;;;;;;;5038151;28;20542;-77
2022/03/21 06:14:35;;;;;;;31.60;16.10;;;;;;;;;;5035337;28;20041;-75
2022/03/21 06:17:01;;;;;;;35.25;16.75;;;;;;;;;;5037565;28;20033;-77
2022/03/21 06:19:27;;;;;;;33.00;17.50;;;;;;;;;;5039804;28;20018;-76
2022/03/21 06:21:53;;;;;;;34.45;16.67;;;;;;;;;;5040070;28;20084;-77
2022/03/21 06:24:19;;;;;;;29.67;16.40;;;;;;;;;;5035904;28;20058;-77
2022/03/21 06:26:46;;;;;;;30.92;15.73;;;;;;;;;;5038418;28;20030;-77
2022/03/21 06:29:12;;;;;;;34.15;17.23;;;;;;;;;;5038227;28;20105;-77
2022/03/21 06:31:38;;;;;;;34.70;16.90;;;;;;;;;;5038157;28;20065;-77
2022/03/21 06:34:04;;;;;;;33.47;17.08;;;;;;;;;;5037623;28;20034;-77
2022/03/21 06:36:30;;;;;;;34.30;16.25;;;;;;;;;;5036803;28;20033;-76
2022/03/21 06:38:56;;;;;;;36.00;17.33;;;;;;;;;;5036278;28;20079;-77
2022/03/21 06:41:22;;;;;;;31.27;16.60;;;;;;;;;;5038962;28;20033;-76
2022/03/21 06:43:48;;;;;;;34.35;16.73;;;;;;;;;;5042098;28;20057;-75
2022/03/21 06:46:14;;;;;;;28.45;15.98;;;;;;;;;;5038431;28;20041;-77
2022/03/21 06:48:40;;;;;;;27.95;16.85;;;;;;;;;;5040359;28;20116;-77
2022/03/21 06:51:07;;;;;;;34.78;16.40;;;;;;;;;;5037111;28;20107;-77
2022/03/21 06:53:33;;;;;;;32.92;17.20;;;;;;;;;;5033993;28;20030;-75
2022/03/21 06:55:59;;;;;;;39.05;16.70;;;;;;;;;;5035301;28;20049;-75
2022/03/21 06:58:25;;;;;;;35.95;16.60;;;;;;;;;;5034325;28;20025;-76
2022/03/21 07:00:50;;;;;;;34.10;17.52;;;;;;;;;;5033231;28;20032;-74
2022/03/21 07:03:17;;;;;;;38.80;17.35;;;;;;;;;;5033903;28;20022;-76
2022/03/21 07:05:43;;;;;;;32.85;16.33;;;;;;;;;;5035357;28;20100;-76
2022/03/21 07:08:09;;;;;;;37.95;17.30;;;;;;;;;;5035991;28;20391;-75
2022/03/21 07:10:35;;;;;;;36.25;16.25;;;;;;;;;;5035302;28;20079;-76
2022/03/21 07:13:02;;;;;;;35.90;17.35;;;;;;;;;;5038632;28;20022;-77
2022/03/21 07:15:28;;;;;;;36.05;17.98;;;;;;;;;;5035543;28;20390;-74
2022/03/21 07:17:56;;;;;;;37.65;16.83;;;;;;;;;;5033913;28;20026;-76
2022/03/21 07:20:22;;;;;;;35.05;17.27;;;;;;;;;;5033003;28;20395;-74
2022/03/21 07:22:48;;;;;;;36.97;17.80;;;;;;;;;;5033366;28;20108;-76
2022/03/21 07:25:14;;;;;;;34.97;17.10;;;;;;;;;;5032998;28;20057;-74
2022/03/21 07:27:44;;;;;;;37.67;17.25;;;;;;;;;;5033780;28;20112;-75
2022/03/21 07:30:12;;;;;;;38.88;18.33;;;;;;;;;;5033965;28;20029;-75
2022/03/21 07:32:38;;;;;;;37.85;18.48;;;;;;;;;;5035035;28;20037;-76
2022/03/21 07:35:04;;;;;;;30.90;17.35;;;;;;;;;;5035482;28;20021;-76
2022/03/21 07:37:38;;;;;;;32.28;17.02;;;;;;;;;;5035686;28;20411;-76
2022/03/21 07:40:04;;;;;;;35.75;17.05;;;;;;;;;;5036324;28;20030;-75
2022/03/21 07:42:33;;;;;;;37.05;16.77;;;;;;;;;;5036735;28;20026;-74
2022/03/21 07:47:44;;;;;;;33.97;16.95;;;;;;;;;;5035381;28;20572;-76
2022/03/21 07:50:10;;;;;;;33.75;17.48;;;;;;;;;;5032010;28;20076;-76
2022/03/21 07:52:36;;;;;;;35.60;16.95;;;;;;;;;;5033753;28;20029;-76
2022/03/21 07:55:03;;;;;;;37.40;17.92;;;;;;;;;;5037382;28;20025;-73
2022/03/21 07:57:29;;;;;;;36.63;17.17;;;;;;;;;;5033219;28;20395;-76
2022/03/21 07:59:55;;;;;;;31.90;16.55;;;;;;;;;;5034611;28;20065;-77
2022/03/21 08:02:22;;;;;;;34.70;17.05;;;;;;;;;;5035349;28;20044;-76
2022/03/21 08:04:50;;;;;;;37.17;16.50;;;;;;;;;;5035639;28;20048;-76
2022/03/21 08:07:16;;;;;;;33.70;16.40;;;;;;;;;;5032522;28;20021;-76
2022/03/21 08:09:42;;;;;;;32.13;17.25;;;;;;;;;;5033548;28;20471;-76
2022/03/21 08:12:08;;;;;;;29.55;16.65;;;;;;;;;;5032545;28;20072;-76
2022/03/21 08:14:35;;;;;;;34.53;16.70;;;;;;;;;;5043551;22;20041;-77
2022/03/21 08:17:01;;;;;;;35.45;17.98;;;;;;;;;;4997313;28;20033;-75
2022/03/21 08:19:28;;;;;;;32.80;17.42;;;;;;;;;;5013694;28;20022;-76
2022/03/21 08:21:54;;;;;;;30.98;17.25;;;;;;;;;;5013651;28;20034;-78
2022/03/21 08:24:21;;;;;;;31.83;17.95;;;;;;;;;;5013635;28;20479;-75
2022/03/21 08:26:47;;;;;;;33.22;17.67;;;;;;;;;;5011874;28;20050;-75
2022/03/21 08:29:13;;;;;;;33.00;17.00;;;;;;;;;;4989658;28;20060;-77
2022/03/21 08:31:39;;;;;;;40.58;17.83;;;;;;;;;;4994496;28;20065;-76
2022/03/21 08:34:05;;;;;;;35.28;16.15;;;;;;;;;;5012127;28;20088;-75
2022/03/21 08:36:31;;;;;;;37.95;16.92;;;;;;;;;;4994199;28;20026;-75
2022/03/21 08:38:58;;;;;;;34.97;16.45;;;;;;;;;;5012269;28;20060;-76
2022/03/21 08:41:23;;;;;;;30.00;17.02;;;;;;;;;;5012251;28;20032;-75
2022/03/21 08:43:50;;;;;;;30.98;16.08;;;;;;;;;;5012455;28;20437;-75
2022/03/21 08:46:16;;;;;;;31.45;16.70;;;;;;;;;;5014449;28;20030;-79
2022/03/21 08:51:26;;;;;;;35.72;17.58;;;;;;;;;;5013981;28;20553;-78
2022/03/21 08:53:53;;;;;;;35.47;16.95;;;;;;;;;;5015687;28;20029;-78
2022/03/21 08:56:19;;;;;;;32.63;16.77;;;;;;;;;;5003356;28;20502;-76
2022/03/21 08:58:44;;;;;;;29.20;16.45;;;;;;;;;;5022233;28;20026;-75
2022/03/21 09:01:10;;;;;;;30.13;17.00;;;;;;;;;;5019910;28;20121;-77
2022/03/21 09:03:36;;;;;;;31.05;17.38;;;;;;;;;;5019475;28;20025;-76
2022/03/21 09:06:02;;;;;;;31.42;17.52;;;;;;;;;;5017151;28;20105;-76
2022/03/21 09:08:28;;;;;;;33.35;16.77;;;6.90;61.10;;;;;;5015495;28;20026;-77
2022/03/21 09:10:54;;;;;;;31.20;16.08;;;13.80;51.40;;;;;;5014925;28;20044;-79
2022/03/21 09:13:20;;;;;;;35.22;16.23;;;;;;;;;;5013819;28;20102;-74
2022/03/21 09:15:45;;;;;;;35.30;16.70;;;14.10;51.10;;;;;;5011731;28;20030;-75
2022/03/21 09:18:11;;;;;;;26.42;16.38;;;;;;;;;;5015549;28;20076;-74
2022/03/21 09:20:37;;;;;;;29.95;16.95;;;15.10;48.10;;;;;;5016990;28;20026;-74
2022/03/21 09:23:04;;;;;;;32.03;17.35;;;15.50;47.80;;;;;;5017003;28;20433;-76
2022/03/21 09:25:30;;;;;;;33.83;17.00;;;15.90;47.20;;;;;;5015193;28;20057;-74
2022/03/21 09:27:55;;;;;;;26.52;16.48;;;16.20;47.80;;;;;;4998506;28;20105;-75
2022/03/21 09:30:21;;;;;;;30.58;15.82;;;16.50;47.10;;;;;;5016419;28;20026;-73
2022/03/21 09:32:46;;;;;;;26.60;16.38;;;17.00;46.20;;;;;;5021732;28;20022;-73
2022/03/21 09:35:13;;;;;;;31.67;17.02;;;17.50;44.00;;;;;;4998269;28;20794;-72
2022/03/21 09:37:39;;;;;;;28.42;16.08;;;18.10;43.40;;;;;;5016942;28;20030;-73
2022/03/21 09:40:06;;;;;;;32.47;19.40;;;18.90;41.80;;;;;;5015657;28;20538;-77
2022/03/21 09:42:33;;;;;;;34.70;20.77;;;19.10;40.70;;;;;;5015589;28;20083;-75
2022/03/21 09:44:59;;;;;;;31.05;16.48;;;19.40;40.40;;;;;;4997709;28;20022;-74
2022/03/21 09:50:13;;;;;;;26.80;16.10;;;20.10;39.80;;;;;;5015692;28;20037;-76
2022/03/21 09:52:39;;;;;;;29.40;15.90;;;20.30;39.10;;;;;;5017014;28;20018;-79
2022/03/21 09:55:07;;;;;;;29.88;16.35;;;20.50;39.00;;;;;;5020174;28;20040;-78
2022/03/21 09:57:33;;;;;;;28.00;16.42;;;20.60;38.70;;;;;;5021356;28;20103;-76
2022/03/21 09:59:59;;;;;;;28.92;15.70;;;20.90;38.40;;;;;;5020983;28;20014;-76
2022/03/21 10:02:25;;;;;;;29.38;16.45;;;21.20;38.00;;;;;;5020526;28;20018;-76
2022/03/21 10:04:52;;;;;;;29.88;15.40;;;21.40;36.90;;;;;;5021017;28;20069;-75
2022/03/21 10:07:25;;;;;;;33.03;16.52;;;21.20;37.30;;;;;;5018675;28;20109;-77
2022/03/21 10:10:09;;;;;;;27.00;16.30;;;20.70;37.60;;;;;;5028889;28;20030;-75
2022/03/21 10:12:36;;;;;;;25.30;15.83;;;20.20;38.10;;;;;;5026107;28;20030;-76
2022/03/21 10:15:09;;;;;;;35.65;17.50;;;19.80;38.70;;;;;;5021007;28;20038;-76
2022/03/21 10:17:35;;;;;;;23.70;15.80;;;19.50;39.20;;;;;;5015040;28;20030;-76
2022/03/21 10:20:01;;;;;;;30.75;15.85;;;19.10;40.10;;;;;;5015367;28;20493;-77
2022/03/21 10:22:32;;;;;;;30.27;16.63;;;18.80;40.30;;;;;;5024278;28;20026;-76
2022/03/21 10:25:03;;;;;;;30.80;17.63;;;18.50;40.70;;;;;;5017317;28;20116;-77
2022/03/21 10:27:33;;;;;;;29.75;16.85;;;18.20;41.00;;;;;;5016506;28;20474;-77
2022/03/21 10:30:08;;;;;;;27.05;16.33;;;18.30;41.50;;;;;;5020153;28;20049;-76
2022/03/21 10:32:35;;;;;;;;;;;18.60;41.20;;;;;;5003917;28;20080;-73
2022/03/21 10:35:22;;;;;;;27.80;16.92;;;18.90;41.30;;;;;;5015759;28;20293;-73
2022/03/21 10:37:58;;;;;;;28.05;16.42;;;19.30;40.30;;;;;;5014208;28;20033;-73
2022/03/21 10:40:33;;;;;;;44.70;16.85;;;19.60;39.90;;;;;;5014290;28;20030;-75
2022/03/21 10:43:14;;;;;;;32.78;16.95;;;20.30;39.30;;;;;;5015526;28;20026;-74
2022/03/21 10:45:47;;;;;;;29.90;17.00;;;21.00;38.50;;;;;;5014811;28;20054;-75
2022/03/21 10:48:22;;;;;;;29.27;17.10;;;21.00;37.90;;;;;;5014760;28;20066;-75
2022/03/21 10:50:51;;;;;;;;;;;20.90;38.00;;;;;;5016010;28;20018;-76
2022/03/21 10:53:26;;;;;;;29.88;16.05;;;21.30;37.50;;;;;;5015489;28;19940;-74
2022/03/21 10:55:58;;;;;;;24.42;16.23;;;21.30;37.10;;;;;;5013438;28;20399;-74
2022/03/21 10:58:43;;;;;;;25.27;16.00;;;21.30;37.30;;;;;;4996142;28;20025;-74
2022/03/21 11:01:16;;;;;;;26.10;16.88;;;21.60;36.40;;;;;;5014620;28;20032;-73
2022/03/21 11:03:45;;;;;;;25.85;15.50;;;21.80;37.00;;;;;;5012056;28;20088;-75
2022/03/21 11:06:12;;;;;;;30.33;16.42;;;22.50;36.60;;;;;;5012873;28;20022;-74
2022/03/21 11:08:39;;;;;;;24.85;16.00;;;23.20;35.30;;;;;;5013381;28;20038;-75
2022/03/21 11:11:06;;;;;;;37.95;16.30;;;23.20;34.90;;;;;;5015082;28;20046;-76
2022/03/21 11:13:32;;;;;;;25.65;16.63;;;23.70;34.80;;;;;;5014891;28;20050;-75
2022/03/21 11:15:58;;;;;;;31.95;15.77;;;23.60;33.90;;;;;;5013793;28;20022;-75
2022/03/21 11:18:27;;;;;;;28.13;15.48;;;23.70;34.10;;;;;;5014428;28;20297;-75
2022/03/21 11:20:52;;;;;;;26.23;15.35;;;24.00;34.00;;;;;;5014782;28;20047;-74
2022/03/21 11:23:21;;;;;;;27.60;15.55;;;24.20;33.40;;;;;;4996020;28;20467;-74
2022/03/21 11:25:52;;;;;;;27.73;16.05;;;24.50;33.30;;;;;;5014238;28;20033;-73
2022/03/21 11:28:42;;;;;;;23.92;15.50;;;24.30;33.30;;;;;;5015907;28;20383;-73
2022/03/21 11:31:21;;;;;;;21.08;14.65;;;24.60;33.10;;;;;;5015454;28;20061;-74
2022/03/21 11:33:50;;;;;;;23.27;14.85;;;;;;;;;;5013457;28;20383;-73
2022/03/21 11:36:16;;;;;;;25.38;16.15;;;24.80;33.20;;;;;;5013602;28;20030;-73
2022/03/21 11:38:47;;;;;;;23.48;14.50;;;25.80;31.50;;;;;;5014648;28;20029;-74
2022/03/21 11:41:23;;;;;;;26.40;15.40;;;26.00;31.50;;;;;;4999721;28;20037;-74
2022/03/21 11:44:04;;;;;;;28.83;14.48;;;25.40;31.50;;;;;;5016691;28;20076;-74
2022/03/21 11:46:32;;;;;;;26.38;14.77;;;25.40;31.90;;;;;;5015007;28;20552;-74
2022/03/21 11:48:59;;;;;;;24.35;14.90;;;25.60;31.40;;;;;;5013759;28;20038;-74
2022/03/21 11:51:29;;;;;;;21.80;14.57;;;26.00;31.20;;;;;;5013263;28;20058;-74
2022/03/21 11:53:55;;;;;;;27.10;16.13;;;26.40;30.90;;;;;;5013024;28;20026;-74
2022/03/21 11:56:36;;;;;;;23.05;15.13;;;26.30;30.50;;;;;;5014240;28;20025;-73
2022/03/21 11:59:03;;;;;;;27.13;15.73;;;26.10;30.80;;;;;;5014498;28;20018;-75
2022/03/21 12:01:30;;;;;;;25.42;16.25;;;25.70;31.00;;;;;;5015130;28;20025;-74
2022/03/21 12:04:16;;;;;;;22.17;15.57;;;25.60;31.20;;;;;;5015226;28;20101;-74
2022/03/21 12:06:42;;;;;;;23.10;14.82;;;25.80;31.10;;;;;;5012505;28;20506;-76
2022/03/21 12:09:13;;;;;;;23.27;14.43;;;25.90;31.00;;;;;;5013039;28;20037;-76
2022/03/21 12:11:39;;;;;;;24.15;14.25;;;26.00;30.90;;;;;;5012727;28;20053;-76
2022/03/21 12:14:21;;;;;;;21.80;14.65;;;;;;;;;;5013724;28;20057;-76
2022/03/21 12:17:02;;;;;;;23.85;16.30;;;26.70;30.60;;;;;;4998841;28;20467;-75
2022/03/21 12:19:48;;;;;;;23.02;16.15;;;27.20;29.80;;;;;;5014954;28;20030;-74
2022/03/21 12:25:05;;;;;;;29.08;15.18;;;26.80;30.10;;;;;;5011974;28;20483;-76
2022/03/21 12:27:34;;;;;;;24.77;16.25;;;27.30;29.70;;;;;;5011701;28;20037;-76
2022/03/21 12:32:52;;;;;;;26.75;15.13;;;27.60;29.50;;;;;;5001094;28;20032;-75
2022/03/21 12:35:34;;;;;;;25.48;15.20;;;27.50;29.20;;;;;;5012937;28;20037;-74
2022/03/21 12:38:16;;;;;;;18.85;14.02;;;27.60;29.30;;;;;;5013333;28;20470;-75
2022/03/21 12:40:51;;;;;;;24.25;15.80;;;27.50;29.40;;;;;;5011996;28;20018;-74
2022/03/21 12:43:25;;;;;;;28.73;14.85;;;27.50;29.20;;;;;;5012347;28;20022;-75
2022/03/21 12:46:06;;;;;;;19.63;14.35;;;27.70;29.20;;;;;;5012150;28;20037;-74
2022/03/21 12:48:53;;;;;;;28.50;15.73;;;27.30;29.30;;;;;;5016225;28;20030;-74
2022/03/21 12:51:25;;;;;;;27.70;14.80;;;27.20;29.40;;;;;;5016411;28;20550;-72
2022/03/21 12:53:51;;;;;;;25.63;15.45;;;27.10;29.40;;;;;;5016008;28;20467;-75
2022/03/21 12:56:19;;;;;;;23.13;16.55;;;26.90;30.00;;;;;;5015197;28;20032;-75
2022/03/21 12:58:46;;;;;;;23.48;15.75;;;27.10;29.70;;;;;;5016094;28;20013;-75
2022/03/21 13:01:17;;;;;;;24.33;15.10;;;26.90;29.40;;;;;;5017697;28;20021;-73
2022/03/21 13:03:43;;;;;;;23.52;14.85;;;26.80;29.60;;;;;;5014543;28;20097;-74
2022/03/21 13:11:38;;;;;;;20.25;14.68;;;26.30;29.50;;;;;;5016644;28;20040;-73
2022/03/21 13:14:16;;;;;;;28.80;14.70;;;25.90;29.70;;;;;;5015681;28;20072;-74
2022/03/21 13:16:49;;;;;;;23.42;15.38;;;25.90;30.00;;;;;;5000086;28;20049;-73
2022/03/21 13:19:27;;;;;;;22.77;13.93;;;26.40;29.80;;;;;;5018295;28;20022;-73
2022/03/21 13:21:58;;;;;;;23.52;15.93;;;26.90;29.70;;;;;;5020743;28;20076;-74
2022/03/21 13:24:47;;;;;;;26.35;15.60;;;27.00;29.40;;;;;;5017667;28;20105;-75
2022/03/21 13:27:15;;;;;;;22.23;15.05;;;27.00;29.20;;;;;;5019713;28;20523;-74
2022/03/21 13:29:56;;;;;;;20.02;14.43;;;27.40;29.00;;;;;;5018675;28;20037;-75
2022/03/21 13:32:22;;;;;;;21.13;14.75;;;27.10;29.20;;;;;;4999025;28;20038;-74
2022/03/21 13:34:52;;;;;;;27.92;16.00;;;27.00;29.20;;;;;;5016156;28;20483;-74
2022/03/21 13:37:24;;;;;;;18.33;14.48;;;27.10;29.10;;;;;;5015157;28;20049;-75
2022/03/21 13:40:07;;;;;;;26.73;15.60;;;26.90;29.10;;;;;;5015403;28;20018;-74
2022/03/21 13:42:39;;;;;;;22.08;14.77;;;26.60;29.30;;;;;;5015937;28;20022;-74
2022/03/21 13:45:06;;;;;;;23.88;15.82;;;26.10;29.80;;;;;;5015109;28;20018;-75
2022/03/21 13:47:49;;;;;;;27.50;16.25;;;26.00;30.00;;;;;;5015777;28;20022;-74
2022/03/21 13:50:15;;;;;;;23.45;15.52;;;25.60;30.00;;;;;;5016394;28;20060;-76
2022/03/21 13:52:48;;;;;;;23.88;15.02;;;25.70;30.30;;;;;;5016513;28;20470;-73
2022/03/21 13:55:19;;;;;;;29.10;16.30;;;26.00;29.70;;;;;;5014653;28;20030;-75
2022/03/21 13:57:53;;;;;;;24.00;16.58;;;26.00;29.90;;;;;;5015470;28;20467;-74
2022/03/21 14:00:28;;;;;;;;;;;25.90;29.80;;;;;;5015744;28;20429;-74
2022/03/21 14:02:57;;;;;;;21.55;15.00;;;25.80;29.70;;;;;;5002799;28;19941;-75
2022/03/21 14:05:30;;;;;;;24.55;15.38;;;26.10;29.80;;;;;;4994872;28;20026;-74
2022/03/21 14:08:21;;;;;;;22.45;15.60;;;26.20;30.00;;;;;;4997479;28;20053;-73
2022/03/21 14:10:48;;;;;;;22.55;14.55;;;26.20;29.80;;;;;;4997118;28;20109;-74
2022/03/21 14:13:22;;;;;;;31.85;16.35;;;26.40;29.70;;;;;;5000954;28;20089;-74
2022/03/21 14:15:49;;;;;;;26.00;14.65;;;26.20;29.90;;;;;;4995384;28;20034;-73
2022/03/21 14:18:28;;;;;;;23.30;15.32;;;26.20;30.00;;;;;;5008990;28;20018;-73
2022/03/21 14:20:55;;;;;;;22.65;15.02;;;25.90;29.80;;;;;;5014780;28;20053;-72
2022/03/21 14:23:21;;;;;;;28.60;15.40;;;25.60;30.40;;;;;;5018307;28;20053;-72